Time;durP1;ratioP1;P1;durP2;ratioP2;P2;SDS_P1;SDS_P2;PMS_P1;PMS_P2;Temp;Humidity;BMP_temperature;BMP_pressure;BME280_temperature;BME280_humidity;BME280_pressure;Samples;Min_cycle;Max_cycle;Signal;HPM_P1;HPM_P2
2022/04/17 00:01:16;;;;;;;6.93;4.07;;;;;;;6.94;63.82;103029.88;5050030;28;20053;-56
2022/04/17 00:03:44;;;;;;;9.13;4.05;;;;;;;6.88;64.06;103027.31;5048428;28;20059;-55
2022/04/17 00:06:13;;;;;;;7.40;3.92;;;;;;;6.76;63.92;103019.66;5052928;28;20095;-51
2022/04/17 00:08:43;;;;;;;11.32;4.35;;;;;;;6.72;63.41;103020.59;5053894;28;20091;-57
2022/04/17 00:11:11;;;;;;;7.57;3.85;;;;;;;6.71;62.23;103024.13;5054039;28;20049;-56
2022/04/17 00:13:39;;;;;;;7.25;4.07;;;;;;;6.66;62.94;103021.56;5053755;28;20098;-57
2022/04/17 00:16:07;;;;;;;8.02;3.85;;;;;;;6.60;62.46;103014.66;5053362;28;20064;-57
2022/04/17 00:18:35;;;;;;;7.63;4.00;;;;;;;6.50;62.04;103031.34;5053570;28;20049;-57
2022/04/17 00:21:04;;;;;;;8.13;3.95;;;;;;;6.51;61.34;103022.63;5053729;28;20102;-57
2022/04/17 00:23:33;;;;;;;10.05;4.68;;;;;;;6.46;62.03;103027.03;5053918;28;20458;-57
2022/04/17 00:26:03;;;;;;;7.85;4.70;;;;;;;6.48;61.71;103021.81;5052497;28;20147;-57
2022/04/17 00:28:31;;;;;;;8.73;4.72;;;;;;;6.44;62.93;103020.97;5053761;28;20056;-57
2022/04/17 00:30:59;;;;;;;8.70;4.50;;;;;;;6.41;63.69;103021.88;5051046;28;20045;-57
2022/04/17 00:33:27;;;;;;;8.43;4.97;;;;;;;6.41;65.23;103018.41;5048595;28;20083;-50
2022/04/17 00:35:55;;;;;;;8.68;4.70;;;;;;;6.38;65.18;103016.72;5052299;28;20446;-57
2022/04/17 00:38:23;;;;;;;10.48;4.55;;;;;;;6.36;65.19;103028.91;5052782;28;20578;-57
2022/04/17 00:40:53;;;;;;;9.15;4.68;;;;;;;6.33;65.58;103017.66;5049305;28;20048;-58
2022/04/17 00:43:29;;;;;;;10.80;4.63;;;;;;;6.40;66.93;103014.06;5049570;28;20045;-57
2022/04/17 00:45:57;;;;;;;9.80;4.82;;;;;;;6.26;66.62;103011.63;5052028;28;20072;-55
2022/04/17 00:48:26;;;;;;;10.40;5.50;;;;;;;6.28;66.63;103011.59;5047915;28;20060;-57
2022/04/17 00:50:57;;;;;;;10.65;5.30;;;;;;;6.19;67.39;103010.84;5049824;28;20091;-53
2022/04/17 00:53:27;;;;;;;8.52;4.70;;;;;;;6.21;67.82;103014.28;5050765;28;20423;-52
2022/04/17 00:55:56;;;;;;;9.13;4.63;;;;;;;6.15;69.79;103023.94;5049026;28;20053;-50
2022/04/17 00:58:26;;;;;;;8.18;4.47;;;;;;;6.03;69.43;103011.91;5049391;28;20052;-52
2022/04/17 01:00:54;;;;;;;8.93;4.60;;;;;;;5.99;70.08;103016.28;5048350;28;20060;-51
2022/04/17 01:03:22;;;;;;;9.80;4.88;;;;;;;5.89;71.29;103025.06;5051980;28;20049;-52
2022/04/17 01:05:51;;;;;;;10.10;4.88;;;;;;;5.86;73.91;103012.94;5048656;28;20057;-53
2022/04/17 01:08:20;;;;;;;8.30;3.92;;;;;;;5.83;71.62;103012.94;5049122;28;20461;-54
2022/04/17 01:10:48;;;;;;;8.52;5.07;;;;;;;5.75;72.49;103017.38;5049980;28;20401;-52
2022/04/17 01:13:18;;;;;;;7.53;4.50;;;;;;;5.78;73.01;103013.88;5050959;28;20132;-51
2022/04/17 01:15:48;;;;;;;8.25;4.55;;;;;;;5.74;72.03;103013.06;5051002;28;20064;-49
2022/04/17 01:18:17;;;;;;;7.65;4.38;;;;;;;5.59;72.41;103014.94;5049732;28;20047;-50
2022/04/17 01:20:45;;;;;;;9.35;4.82;;;;;;;5.57;75.54;103014.06;5048845;28;20134;-52
2022/04/17 01:28:45;;;;;;;10.93;4.93;;;;;;;5.44;76.20;103009.88;5048452;28;20049;-52
2022/04/17 01:31:13;;;;;;;11.85;5.07;;;;;;;5.39;74.95;103011.63;5048754;28;20587;-50
2022/04/17 01:33:47;;;;;;;10.95;5.35;;;;;;;5.35;72.75;103007.31;5050951;28;20092;-52
2022/04/17 01:36:15;;;;;;;11.95;5.78;;;;;;;5.32;71.38;103002.16;5052280;28;20044;-56
2022/04/17 01:38:44;;;;;;;13.75;5.82;;;;;;;5.25;70.67;102996.09;5050966;28;20033;-57
2022/04/17 01:41:15;;;;;;;13.00;5.60;;;;;;;5.33;70.77;103011.69;5048613;28;20044;-54
2022/04/17 01:43:43;;;;;;;11.02;5.47;;;;;;;5.33;71.82;103011.69;5048105;28;20492;-54
2022/04/17 01:46:11;;;;;;;13.13;6.70;;;;;;;5.33;73.17;103006.47;5049883;28;20056;-53
2022/04/17 01:48:39;;;;;;;10.73;5.72;;;;;;;5.34;72.77;103010.81;5046595;28;20091;-57
2022/04/17 01:51:07;;;;;;;12.35;5.93;;;;;;;5.34;72.60;103001.22;5048224;28;20049;-57
2022/04/17 01:53:35;;;;;;;10.88;5.70;;;;;;;5.30;72.99;103007.34;5046740;28;20065;-55
2022/04/17 01:56:05;;;;;;;11.50;6.47;;;;;;;5.20;73.77;103006.56;5048181;28;20060;-54
2022/04/17 01:58:33;;;;;;;12.88;6.00;;;;;;;5.14;75.44;103005.75;5048101;28;20044;-55
2022/04/17 02:01:02;;;;;;;12.07;5.78;;;;;;;5.04;76.54;103005.81;5047926;28;20460;-54
2022/04/17 02:03:30;;;;;;;10.73;6.20;;;;;;;5.08;76.84;102999.72;5046355;28;20457;-55
2022/04/17 02:05:59;;;;;;;10.18;5.53;;;;;;;5.03;77.97;102996.28;5047647;28;20041;-55
2022/04/17 02:08:27;;;;;;;13.10;7.03;;;;;;;5.02;79.28;102996.28;5048023;28;20043;-56
2022/04/17 02:10:56;;;;;;;13.57;6.25;;;;;;;4.91;81.00;102991.16;5049432;28;20052;-55
2022/04/17 02:13:25;;;;;;;11.95;6.20;;;;;;;4.83;81.59;103004.22;5051826;28;20067;-55
2022/04/17 02:15:54;;;;;;;13.35;6.70;;;;;;;4.85;81.47;102986.84;5048196;28;20122;-56
2022/04/17 02:18:22;;;;;;;11.32;6.07;;;;;;;4.88;81.17;102991.16;5046160;28;20041;-50
2022/04/17 02:20:50;;;;;;;11.77;6.15;;;;;;;4.77;82.07;102995.56;5048886;28;20060;-55
2022/04/17 02:23:18;;;;;;;11.57;6.28;;;;;;;4.71;82.58;102996.50;5051589;28;20087;-55
2022/04/17 02:25:47;;;;;;;12.45;6.45;;;;;;;4.63;83.19;102993.91;5051680;28;20056;-56
2022/04/17 02:28:15;;;;;;;12.25;6.00;;;;;;;4.67;82.36;102990.41;5048114;28;20132;-56
2022/04/17 02:30:44;;;;;;;11.88;6.05;;;;;;;4.62;81.58;102991.31;5047453;28;20071;-55
2022/04/17 02:33:13;;;;;;;10.10;6.05;;;;;;;4.54;82.20;102984.44;5046612;28;20080;-57
2022/04/17 02:35:41;;;;;;;10.65;6.43;;;;;;;4.52;83.29;102985.31;5049120;28;20115;-52
2022/04/17 02:38:09;;;;;;;13.38;6.18;;;;;;;4.47;85.07;102987.06;5051167;28;20052;-50
2022/04/17 02:40:37;;;;;;;10.85;6.00;;;;;;;4.38;85.49;102988.00;5049023;28;20064;-51
2022/04/17 02:43:05;;;;;;;10.23;6.10;;;;;;;4.39;85.09;102987.97;5047576;28;20508;-51
2022/04/17 02:45:33;;;;;;;10.43;6.20;;;;;;;4.39;84.42;102989.69;5047516;28;20392;-50
2022/04/17 02:48:02;;;;;;;12.52;6.07;;;;;;;4.34;85.01;102991.47;5048278;28;20103;-52
2022/04/17 02:50:31;;;;;;;11.02;6.00;;;;;;;4.30;83.56;102994.97;5051740;28;20079;-50
2022/04/17 02:52:59;;;;;;;12.30;6.18;;;;;;;4.29;82.74;102993.22;5051392;28;20128;-51
2022/04/17 02:55:27;;;;;;;9.98;5.93;;;;;;;4.25;83.51;102991.50;5051016;28;20087;-55
2022/04/17 02:57:56;;;;;;;10.00;5.85;;;;;;;4.29;83.01;102983.66;5048618;28;20714;-51
2022/04/17 03:00:26;;;;;;;10.73;6.25;;;;;;;4.21;82.63;102990.66;5047066;28;20051;-50
2022/04/17 03:05:41;;;;;;;10.07;5.85;;;;;;;4.12;83.96;102993.28;5048663;28;20053;-55
2022/04/17 03:08:11;;;;;;;10.38;6.05;;;;;;;4.18;82.35;102988.91;5046953;28;20056;-55
2022/04/17 03:10:41;;;;;;;11.70;6.05;;;;;;;4.03;81.71;102983.78;5047447;28;20048;-56
2022/04/17 03:13:10;;;;;;;12.02;6.20;;;;;;;4.02;81.39;102987.25;5047423;28;20531;-56
2022/04/17 03:15:39;;;;;;;10.60;5.82;;;;;;;3.95;81.33;102990.75;5048501;28;20191;-53
2022/04/17 03:18:08;;;;;;;12.02;6.35;;;;;;;3.95;81.77;102982.94;5049309;28;20060;-52
2022/04/17 03:20:37;;;;;;;11.32;6.55;;;;;;;3.96;82.34;102990.75;5052551;28;20059;-52
2022/04/17 03:23:07;;;;;;;11.15;6.60;;;;;;;3.96;81.76;102989.91;5051484;28;20061;-56
2022/04/17 03:25:35;;;;;;;11.40;6.60;;;;;;;3.91;81.16;102989.03;5057887;28;20053;-52
2022/04/17 03:28:03;;;;;;;11.65;6.80;;;;;;;3.89;81.06;102982.09;5072078;28;20510;-50
2022/04/17 03:30:31;;;;;;;11.93;7.30;;;;;;;3.89;81.00;102979.47;5069626;28;20040;-52
2022/04/17 03:33:00;;;;;;;12.57;7.60;;;;;;;3.86;81.58;102976.03;5068611;28;20151;-51
2022/04/17 03:35:29;;;;;;;13.13;7.15;;;;;;;3.89;81.63;102969.06;5071296;28;20102;-55
2022/04/17 03:37:58;;;;;;;12.27;6.80;;;;;;;3.93;81.72;102969.03;5069978;28;20068;-56
2022/04/17 03:40:27;;;;;;;12.05;6.90;;;;;;;3.96;83.37;102971.66;5070902;28;20427;-52
2022/04/17 03:42:58;;;;;;;14.18;6.82;;;;;;;3.88;84.10;102964.72;5070420;28;20041;-51
2022/04/17 03:45:26;;;;;;;11.25;6.32;;;;;;;3.89;85.15;102955.19;5071040;28;20503;-51
2022/04/17 03:47:54;;;;;;;10.48;6.65;;;;;;;3.84;85.48;102962.16;5069024;28;20048;-52
2022/04/17 03:50:22;;;;;;;9.93;5.63;;;;;;;3.87;85.55;102967.34;5074257;28;20055;-54
2022/04/17 03:52:50;;;;;;;11.23;6.60;;;;;;;3.86;86.01;102958.66;5074023;28;20048;-50
2022/04/17 03:55:18;;;;;;;13.45;6.35;;;;;;;3.78;85.55;102959.59;5073878;28;20052;-50
2022/04/17 03:57:47;;;;;;;9.98;6.38;;;;;;;3.79;85.42;102962.16;5070918;28;20518;-49
2022/04/17 04:00:16;;;;;;;12.88;7.05;;;;;;;3.73;84.41;102951.75;5069889;28;20514;-53
2022/04/17 04:02:45;;;;;;;12.20;6.63;;;;;;;3.69;84.45;102952.63;5070876;28;20131;-49
2022/04/17 04:05:13;;;;;;;10.48;6.00;;;;;;;3.72;85.28;102956.13;5071468;28;20068;-51
2022/04/17 04:07:41;;;;;;;11.73;6.50;;;;;;;3.63;84.96;102956.13;5069780;28;20059;-50
2022/04/17 04:10:10;;;;;;;11.32;6.70;;;;;;;3.54;84.70;102954.44;5072500;28;20041;-55
2022/04/17 04:12:39;;;;;;;12.93;6.55;;;;;;;3.53;84.97;102951.81;5072619;28;20515;-56
2022/04/17 04:15:09;;;;;;;13.57;7.95;;;;;;;3.55;84.36;102947.47;5073718;28;20063;-56
2022/04/17 04:17:37;;;;;;;12.23;6.60;;;;;;;3.51;84.65;102956.16;5072812;28;20503;-54
2022/04/17 04:20:07;;;;;;;13.75;7.45;;;;;;;3.55;83.67;102944.88;5072053;28;20098;-56
2022/04/17 04:22:35;;;;;;;14.23;7.60;;;;;;;3.57;83.24;102944.88;5070256;28;20495;-56
2022/04/17 04:25:03;;;;;;;14.60;8.38;;;;;;;3.47;83.20;102941.41;5069841;28;20049;-55
2022/04/17 04:30:18;;;;;;;14.52;8.32;;;;;;;3.55;83.66;102937.91;5068030;28;20049;-55
2022/04/17 04:32:54;;;;;;;16.13;8.15;;;;;;;3.53;83.89;102936.19;5071367;28;20105;-55
2022/04/17 04:35:22;;;;;;;11.38;6.80;;;;;;;3.57;84.82;102929.25;5070357;28;20047;-54
2022/04/17 04:37:50;;;;;;;12.43;6.80;;;;;;;3.53;85.65;102937.06;5068080;28;20067;-56
2022/04/17 04:40:19;;;;;;;12.27;6.25;;;;;;;3.60;87.19;102937.03;5069514;28;20037;-54
2022/04/17 04:42:47;;;;;;;12.32;7.07;;;;;;;3.54;88.30;102931.00;5070541;28;20075;-55
2022/04/17 04:48:02;;;;;;;11.40;6.43;;;;;;;3.48;88.50;102923.19;5073265;28;20046;-52
2022/04/17 04:50:29;;;;;;;11.55;6.65;;;;;;;3.47;88.80;102931.00;5071411;28;20493;-55
2022/04/17 04:52:57;;;;;;;11.15;6.50;;;;;;;3.41;88.19;102931.00;5069110;28;20049;-55
2022/04/17 04:55:26;;;;;;;11.73;7.05;;;;;;;3.41;87.70;102934.50;5070150;28;20384;-55
2022/04/17 04:57:55;;;;;;;14.52;7.22;;;;;;;3.43;86.77;102937.09;5072984;28;20400;-51
2022/04/17 05:00:23;;;;;;;16.13;7.93;;;;;;;3.42;86.59;102932.75;5073410;28;20545;-48
2022/04/17 05:02:51;;;;;;;16.33;8.43;;;;;;;3.39;85.10;102928.41;5067915;28;20048;-49
2022/04/17 05:05:20;;;;;;;16.60;8.68;;;;;;;3.41;85.54;102929.31;5069166;28;20048;-47
2022/04/17 05:07:48;;;;;;;15.00;7.68;;;;;;;3.49;85.77;102930.16;5070261;28;20040;-49
2022/04/17 05:10:17;;;;;;;13.73;8.32;;;;;;;3.43;85.70;102930.16;5072737;28;20045;-53
2022/04/17 05:12:45;;;;;;;15.18;7.70;;;;;;;3.45;85.33;102930.13;5069965;28;20491;-49
2022/04/17 05:15:13;;;;;;;14.82;8.35;;;;;;;3.44;85.06;102924.06;5068745;28;20051;-51
2022/04/17 05:17:41;;;;;;;15.60;8.23;;;;;;;3.49;85.70;102931.88;5067571;28;20049;-51
2022/04/17 05:20:10;;;;;;;16.33;9.10;;;;;;;3.50;85.23;102926.66;5068599;28;20049;-51
2022/04/17 05:22:40;;;;;;;14.30;8.07;;;;;;;3.52;84.87;102918.88;5068989;28;20112;-56
2022/04/17 05:25:13;;;;;;;16.23;9.60;;;;;;;3.49;84.47;102924.94;5068615;28;20135;-55
2022/04/17 05:27:41;;;;;;;16.80;8.35;;;;;;;3.52;83.92;102924.94;5070668;28;20120;-55
2022/04/17 05:30:10;;;;;;;15.05;9.07;;;;;;;3.60;83.65;102924.03;5068465;28;20048;-55
2022/04/17 05:32:38;;;;;;;18.23;10.23;;;;;;;3.59;83.45;102923.19;5069738;28;20106;-55
2022/04/17 05:35:07;;;;;;;17.42;8.52;;;;;;;3.60;81.29;102929.25;5072201;28;20051;-53
2022/04/17 05:37:35;;;;;;;17.08;8.50;;;;;;;3.66;80.10;102926.63;5069578;28;20098;-56
2022/04/17 05:40:06;;;;;;;15.10;7.97;;;;;;;3.67;79.76;102924.03;5068106;28;20055;-55
2022/04/17 05:42:35;;;;;;;14.27;7.47;;;;;;;3.66;79.94;102932.69;5067155;28;20275;-54
2022/04/17 05:45:03;;;;;;;13.35;7.82;;;;;;;3.66;80.14;102935.28;5069391;28;20141;-50
2022/04/17 05:47:31;;;;;;;13.25;6.80;;;;;;;3.70;80.18;102933.56;5070315;28;20496;-50
2022/04/17 05:50:00;;;;;;;12.95;6.95;;;;;;;3.74;80.44;102935.28;5066924;28;20040;-52
2022/04/17 05:52:34;;;;;;;13.20;7.43;;;;;;;3.78;80.07;102930.94;5068515;28;20051;-56
2022/04/17 05:55:02;;;;;;;13.60;7.38;;;;;;;3.81;80.41;102923.97;5068083;28;20056;-56
2022/04/17 05:57:32;;;;;;;14.10;7.90;;;;;;;3.85;80.24;102938.72;5068434;28;20413;-51
2022/04/17 06:00:00;;;;;;;13.05;6.53;;;;;;;3.89;80.26;102937.81;5068257;28;20379;-51
2022/04/17 06:02:28;;;;;;;13.48;6.68;;;;;;;3.97;80.03;102939.56;5068608;28;20043;-52
2022/04/17 06:04:56;;;;;;;13.95;7.53;;;;;;;4.11;78.08;102935.13;5069076;28;20063;-50
2022/04/17 06:07:26;;;;;;;15.00;6.68;;;;;;;4.23;77.97;102929.00;5071562;28;20102;-54
2022/04/17 06:09:54;;;;;;;12.05;6.90;;;;;;;4.31;77.55;102928.94;5071531;28;20091;-53
2022/04/17 06:12:22;;;;;;;13.05;6.68;;;;;;;4.37;77.51;102926.31;5071882;28;20056;-56
2022/04/17 06:14:52;;;;;;;12.15;6.93;;;;;;;4.43;77.00;102926.31;5071326;28;20045;-55
2022/04/17 06:17:20;;;;;;;13.50;6.88;;;;;;;4.50;76.84;102924.50;5069295;28;20036;-54
2022/04/17 06:19:48;;;;;;;11.25;6.72;;;;;;;4.59;76.45;102924.44;5065544;28;20032;-55
2022/04/17 06:22:17;;;;;;;11.40;7.22;;;;;;;4.83;75.49;102930.38;5071126;28;20048;-53
2022/04/17 06:24:46;;;;;;;11.70;7.00;;;;;;;5.02;74.96;102925.88;5070060;28;20053;-56
2022/04/17 06:27:14;;;;;;;14.95;6.68;;;;;;;5.14;72.97;102917.06;5068270;28;20044;-56
2022/04/17 06:29:42;;;;;;;11.98;7.40;;;;;;;5.18;74.03;102927.47;5067336;28;20050;-55
2022/04/17 06:32:11;;;;;;;13.35;6.88;;;;;;;5.36;72.58;102928.16;5067366;28;20068;-56
2022/04/17 06:34:39;;;;;;;12.52;7.07;;;;;;;5.53;71.90;102921.00;5066392;28;20044;-56
2022/04/17 06:37:07;;;;;;;11.00;6.90;;;;;;;5.56;71.70;102931.44;5070646;28;20473;-56
2022/04/17 06:39:35;;;;;;;12.30;7.00;;;;;;;5.66;71.90;102918.25;5067664;28;20067;-56
2022/04/17 06:42:04;;;;;;;10.27;6.32;;;;;;;5.75;70.43;102926.00;5068013;28;20560;-56
2022/04/17 06:44:34;;;;;;;11.23;6.80;;;;;;;5.88;70.66;102917.13;5067655;28;20056;-56
2022/04/17 06:47:02;;;;;;;12.32;7.07;;;;;;;6.04;68.37;102916.97;5067634;28;20059;-55
2022/04/17 06:49:32;;;;;;;10.77;6.50;;;;;;;6.26;69.68;102917.56;5066838;28;20515;-56
2022/04/17 06:52:00;;;;;;;10.80;6.88;;;;;;;6.34;69.44;102906.97;5075392;28;20127;-50
2022/04/17 06:54:28;;;;;;;11.05;6.80;;;;;;;6.60;68.52;102917.06;5075135;28;20490;-50
2022/04/17 06:56:56;;;;;;;12.98;6.45;;;;;;;6.72;67.07;102911.63;5074717;28;20044;-56
2022/04/17 06:59:25;;;;;;;10.75;6.65;;;;;;;6.93;65.80;102913.03;5074917;28;20068;-51
2022/04/17 07:01:53;;;;;;;10.98;6.63;;;;;;;7.07;67.02;102904.09;5070782;28;20044;-50
2022/04/17 07:04:21;;;;;;;10.85;6.82;;;;;;;7.14;66.83;102912.69;5071173;28;20123;-52
2022/04/17 07:06:50;;;;;;;10.32;6.72;;;;;;;7.25;67.59;102913.34;5074975;28;20488;-53
2022/04/17 07:09:18;;;;;;;11.55;7.45;;;;;;;7.42;67.96;102918.28;5075190;28;20076;-54
2022/04/17 07:11:46;;;;;;;11.38;6.43;;;;;;;7.65;65.15;102917.84;5074848;28;20045;-51
2022/04/17 07:14:15;;;;;;;11.90;6.72;;;;;;;7.82;66.67;102911.41;5074859;28;20040;-48
2022/04/17 07:16:43;;;;;;;11.05;5.70;;;;;;;8.11;62.50;102909.03;5075028;28;20044;-50
2022/04/17 07:19:11;;;;;;;11.05;5.55;;;;;;;8.32;60.74;102905.94;5073321;28;20044;-57
2022/04/17 07:21:39;;;;;;;10.93;5.93;;;;;;;8.52;59.60;102903.78;5070925;28;20047;-57
2022/04/17 07:24:09;;;;;;;10.68;5.47;;;;;;;8.75;57.83;102904.97;5071238;28;20098;-57
2022/04/17 07:26:37;;;;;;;9.45;5.50;;;;;;;8.90;57.05;102898.47;5070475;28;20060;-58
2022/04/17 07:29:05;;;;;;;10.85;5.88;;;;;;;9.00;56.90;102893.84;5070427;28;20044;-58
2022/04/17 07:31:34;;;;;;;9.93;5.10;;;;;;;9.12;56.22;102896.16;5070950;28;20058;-58
2022/04/17 07:34:02;;;;;;;11.38;5.32;;;;;;;9.24;55.89;102898.47;5069210;28;20052;-57
2022/04/17 07:36:30;;;;;;;10.32;5.22;;;;;;;9.36;55.42;102897.25;5071629;28;20102;-57
2022/04/17 07:38:58;;;;;;;10.57;5.75;;;;;;;9.60;56.59;102898.34;5070087;28;20055;-58
2022/04/17 07:41:27;;;;;;;9.52;5.35;;;;;;;9.80;55.62;102895.16;5071088;28;20565;-57
2022/04/17 07:43:55;;;;;;;9.27;6.30;;;;;;;9.91;55.11;102889.59;5073494;28;20056;-59
2022/04/17 07:46:23;;;;;;;8.85;5.28;;;;;;;10.10;53.89;102891.66;5070733;28;20504;-57
2022/04/17 07:48:52;;;;;;;9.35;5.35;;;;;;;10.27;53.78;102880.63;5071818;28;20044;-62
2022/04/17 07:51:20;;;;;;;8.57;5.20;;;;;;;10.51;52.93;102886.03;5070888;28;20143;-57
2022/04/17 07:53:48;;;;;;;8.90;5.25;;;;;;;10.63;52.41;102889.13;5069994;28;20088;-58
2022/04/17 07:56:16;;;;;;;9.27;4.85;;;;;;;10.73;52.37;102888.81;5070194;28;20049;-57
2022/04/17 07:58:45;;;;;;;9.40;5.15;;;;;;;10.80;52.00;102885.94;5073941;28;20052;-57
2022/04/17 08:01:15;;;;;;;9.30;5.10;;;;;;;10.97;51.67;102879.22;5073566;28;20472;-57
2022/04/17 08:03:47;;;;;;;10.05;5.05;;;;;;;11.26;51.86;102882.59;5070135;28;20573;-57
2022/04/17 08:06:21;;;;;;;10.40;5.03;;;;;;;11.40;50.84;102883.00;5070604;28;20380;-57
2022/04/17 08:08:51;;;;;;;9.60;5.30;;;;;;;11.44;48.03;102881.13;5073971;28;20133;-57
2022/04/17 08:11:19;;;;;;;9.35;5.30;;;;;;;11.51;49.95;102887.88;5073980;28;20087;-57
2022/04/17 08:13:48;;;;;;;9.85;5.38;;;;;;;11.61;49.09;102873.41;5074084;28;20625;-57
2022/04/17 08:16:17;;;;;;;10.90;5.15;;;;;;;11.76;50.25;102866.72;5073911;28;20495;-58
2022/04/17 08:18:46;;;;;;;10.93;5.15;;;;;;;11.91;49.54;102870.53;5068570;28;20402;-58
2022/04/17 08:21:14;;;;;;;8.68;5.38;;;;;;;12.21;48.48;102870.28;5070998;28;20392;-58
2022/04/17 08:23:42;;;;;;;9.95;4.88;;;;;;;12.21;48.31;102866.81;5069721;28;20049;-57
2022/04/17 08:26:10;;;;;;;10.10;4.95;;;;;;;12.24;48.02;102859.59;5069649;28;20059;-58
2022/04/17 08:28:38;;;;;;;8.60;4.80;;;;;;;12.15;48.71;102857.34;5069500;28;20717;-58
2022/04/17 08:31:10;;;;;;;9.80;5.25;;;;;;;12.57;48.05;102853.88;5069859;28;21186;-57
2022/04/17 08:33:38;;;;;;;9.07;4.97;;;;;;;12.78;46.89;102861.81;5073446;28;20056;-57
2022/04/17 08:36:08;;;;;;;8.23;4.80;;;;;;;13.00;46.40;102859.97;5073277;28;20469;-57
2022/04/17 08:38:36;;;;;;;8.13;4.47;;;;;;;12.95;46.38;102854.03;5071676;28;20057;-57
2022/04/17 08:41:06;;;;;;;8.35;4.57;;;;;;;13.17;46.68;102853.06;5069698;28;20041;-58
2022/04/17 08:43:34;;;;;;;10.75;4.85;;;;;;;13.28;45.87;102848.19;5069261;28;20119;-59
2022/04/17 08:46:03;;;;;;;7.28;4.38;;;;;;;13.49;46.36;102850.81;5069455;28;20395;-57
2022/04/17 08:48:35;;;;;;;7.95;4.55;;;;;;;13.86;45.98;102849.97;5068174;28;20052;-57
2022/04/17 08:51:05;;;;;;;99.72;15.32;;;;;;;13.95;44.70;102840.75;5071542;28;20522;-57
2022/04/17 08:53:35;;;;;;;9.10;4.60;;;;;;;14.15;44.31;102838.91;5070732;28;20056;-58
2022/04/17 08:56:03;;;;;;;7.80;4.85;;;;;;;14.25;44.19;102842.81;5069525;28;20048;-58
2022/04/17 08:58:32;;;;;;;8.90;5.13;;;;;;;14.46;44.64;102837.41;5069810;28;20052;-58
2022/04/17 09:01:00;;;;;;;8.82;4.57;;;;;;;14.37;44.61;102844.88;5071869;28;20150;-58
2022/04/17 09:03:28;;;;;;;7.93;4.15;;;;;;;14.51;42.43;102838.88;5067948;28;20466;-59
2022/04/17 09:05:59;;;;;;;7.53;4.07;;;;;;;14.83;42.37;102838.19;5071280;28;20762;-58
2022/04/17 09:08:28;;;;;;;6.75;3.53;;;;;;;14.98;41.23;102841.84;5069674;28;20057;-59
2022/04/17 09:10:57;;;;;;;8.85;3.30;;;;;;;14.66;40.72;102831.97;5068428;28;20048;-59
2022/04/17 09:13:27;;;;;;;5.85;3.28;;;;;;;14.92;40.86;102829.78;5068491;28;20060;-59
2022/04/17 09:15:56;;;;;;;8.90;3.55;;;;;;;14.82;40.70;102831.19;5068237;28;20060;-59
2022/04/17 09:18:28;;;;;;;7.10;3.60;;;;;;;15.34;39.90;102827.59;5067881;28;20067;-59
2022/04/17 09:20:58;;;;;;;6.72;3.20;;;;;;;15.48;38.94;102819.72;5071333;28;20052;-58
2022/04/17 09:23:37;;;;;;;6.82;3.50;;;;;;;16.01;39.02;102814.22;5072640;28;20041;-57
2022/04/17 09:26:06;;;;;;;5.78;3.47;;;;;;;16.15;39.49;102808.09;5068655;28;20044;-57
2022/04/17 09:28:36;;;;;;;6.63;3.10;;;;;;;15.89;38.74;102807.78;5070125;28;20087;-54
2022/04/17 09:31:10;;;;;;;7.07;3.53;;;;;;;15.67;38.43;102814.25;5072213;28;20407;-55
2022/04/17 09:33:39;;;;;;;8.73;3.72;;;;;;;15.86;38.54;102800.00;5072167;28;20072;-55
2022/04/17 09:36:09;;;;;;;7.82;4.15;;;;;;;16.25;37.75;102792.50;5068888;28;20045;-58
2022/04/17 09:38:41;;;;;;;5.40;3.00;;;;;;;16.10;36.79;102795.09;5068241;28;20056;-58
2022/04/17 09:41:13;;;;;;;7.03;3.22;;;;;;;16.28;36.66;102789.66;5068350;28;20044;-58
2022/04/17 09:43:43;;;;;;;6.20;3.40;;;;;;;16.64;36.94;102783.09;5068252;28;20501;-59
2022/04/17 09:46:12;;;;;;;8.10;3.45;;;;;;;16.54;37.64;102782.81;5068770;28;20036;-58
2022/04/17 09:48:42;;;;;;;7.60;3.00;;;;;;;16.75;36.90;102779.81;5072041;28;20048;-59
2022/04/17 09:51:22;;;;;;;6.72;3.30;;;;;;;17.03;36.63;102774.53;5071659;28;20041;-58
2022/04/17 09:53:59;;;;;;;5.15;2.92;;;;;;;16.80;34.37;102775.06;5068591;28;20423;-54
2022/04/17 09:56:32;;;;;;;5.97;3.08;;;;;;;16.62;34.96;102774.34;5067634;28;20052;-54
2022/04/17 09:59:00;;;;;;;;;;;;;;;16.76;34.73;102770.88;5070178;28;20052;-54
2022/04/17 10:01:28;;;;;;;7.40;3.00;;;;;;;16.94;36.60;102772.44;5068528;28;20399;-55
2022/04/17 10:03:58;;;;;;;5.32;3.28;;;;;;;17.12;35.61;102769.59;5067431;28;20055;-55
2022/04/17 10:06:28;;;;;;;5.45;2.75;;;;;;;17.53;35.56;102768.75;5070102;28;20044;-58
2022/04/17 10:08:58;;;;;;;5.60;3.00;;;;;;;17.43;33.98;102760.50;5067382;28;20626;-58
2022/04/17 10:11:27;;;;;;;7.95;3.08;;;;;;;17.44;33.37;102758.69;5071447;28;20098;-57
2022/04/17 10:13:57;;;;;;;6.03;3.03;;;;;;;17.37;34.11;102745.81;5067871;28;20051;-57
2022/04/17 10:16:27;;;;;;;5.65;3.10;;;;;;;17.44;34.62;102740.06;5068329;28;20426;-57
2022/04/17 10:18:55;;;;;;;6.15;3.08;;;;;;;17.64;35.85;102744.09;5068189;28;20565;-56
2022/04/17 10:21:28;;;;;;;6.72;3.15;;;;;;;17.79;33.94;102740.44;5069802;28;20040;-57
2022/04/17 10:24:02;;;;;;;6.75;3.67;;;;;;;17.73;33.16;102741.69;5067774;28;20055;-57
2022/04/17 10:26:33;;;;;;;5.57;2.95;;;;;;;18.33;33.12;102747.50;5071300;28;20543;-58
2022/04/17 10:29:05;;;;;;;6.53;3.55;;;;;;;18.48;32.93;102731.47;5071820;28;20064;-57
2022/04/17 10:31:46;;;;;;;6.75;3.53;;;;;;;18.91;31.81;102734.66;5071932;28;20048;-57
2022/04/17 10:34:37;;;;;;;7.28;3.65;;;;;;;18.41;32.88;102723.03;5071970;28;20458;-57
2022/04/17 10:37:22;;;;;;;7.40;3.80;;;;;;;18.44;32.68;102719.31;5028498;28;20102;-58
2022/04/17 10:39:57;;;;;;;9.05;4.20;;;;;;;18.32;32.99;102721.00;5072371;28;20052;-58
2022/04/17 10:42:35;;;;;;;6.70;3.65;;;;;;;19.00;33.50;102706.47;5068747;28;20056;-57
2022/04/17 10:45:06;;;;;;;8.02;4.00;;;;;;;19.26;33.43;102711.75;5069031;28;20777;-57
2022/04/17 10:47:34;;;;;;;5.90;3.35;;;;;;;19.40;31.79;102697.38;5071815;28;20045;-58
2022/04/17 10:50:08;;;;;;;7.40;3.72;;;;;;;19.77;31.03;102689.31;5070037;28;20474;-58
2022/04/17 10:52:37;;;;;;;7.80;4.22;;;;;;;18.96;31.48;102689.00;5067715;28;20055;-59
2022/04/17 10:55:11;;;;;;;8.48;4.07;;;;;;;19.70;32.09;102683.59;5070795;28;20048;-59
2022/04/17 10:57:46;;;;;;;6.88;3.67;;;;;;;20.43;31.45;102678.06;5071478;28;20044;-55
2022/04/17 11:00:32;;;;;;;6.65;3.88;;;;;;;19.62;30.95;102674.44;5071401;28;20044;-54
2022/04/17 11:03:23;;;;;;;6.18;3.83;;;;;;;20.15;30.60;102680.25;5066589;28;20533;-56
2022/04/17 11:06:10;;;;;;;5.85;3.15;;;;;;;20.56;30.22;102670.78;5067424;28;20048;-56
2022/04/17 11:08:51;;;;;;;6.00;3.10;;;;;;;20.43;28.61;102659.38;5067318;28;20041;-54
2022/04/17 11:11:21;;;;;;;7.13;3.13;;;;;;;20.26;27.69;102658.03;5068205;28;20518;-56
2022/04/17 11:14:08;;;;;;;7.88;3.40;;;;;;;20.64;27.47;102658.63;5066434;28;20083;-55
2022/04/17 11:16:47;;;;;;;6.00;3.20;;;;;;;21.04;28.27;102653.63;5067332;28;20101;-57
2022/04/17 11:19:17;;;;;;;7.68;3.65;;;;;;;21.30;26.82;102647.09;5066036;28;20123;-55
2022/04/17 11:21:47;;;;;;;5.90;3.05;;;;;;;21.25;25.90;102653.69;5067114;28;20052;-56
2022/04/17 11:24:15;;;;;;;6.47;3.05;;;;;;;21.14;26.15;102643.03;5067769;28;20048;-55
2022/04/17 11:27:10;;;;;;;6.85;3.47;;;;;;;21.64;25.31;102631.78;5066969;28;20045;-57
2022/04/17 11:29:43;;;;;;;6.13;2.80;;;;;;;22.02;26.28;102640.19;5067176;28;20045;-55
2022/04/17 11:32:29;;;;;;;;;;;;;;;21.38;25.02;102631.28;5067693;28;20083;-56
2022/04/17 11:35:01;;;;;;;6.72;3.38;;;;;;;21.61;24.87;102624.88;5066129;28;19924;-56
2022/04/17 11:37:31;;;;;;;6.28;2.90;;;;;;;21.74;24.86;102618.47;5073737;28;20075;-55
2022/04/17 11:40:10;;;;;;;6.13;3.00;;;;;;;22.28;26.01;102616.53;5072780;28;20368;-56
2022/04/17 11:42:45;;;;;;;8.63;3.03;;;;;;;22.14;24.43;102615.03;5069379;28;20556;-56
2022/04/17 11:45:15;;;;;;;6.07;2.73;;;;;;;22.22;25.29;102606.31;5068436;28;20053;-56
2022/04/17 11:47:45;;;;;;;7.95;3.42;;;;;;;22.35;24.56;102606.97;5074040;28;20135;-55
2022/04/17 11:50:21;;;;;;;7.28;3.42;;;;;;;22.98;25.53;102600.50;5074154;28;20056;-54
2022/04/17 11:52:50;;;;;;;6.32;3.20;;;;;;;22.17;23.68;102597.84;5073658;28;20060;-56